sensor_id;sensor_type;location;lat;lon;timestamp;P1;durP1;ratioP1;P2;durP2;ratioP2
12120;SDS011;6124;59.460;17.908;2023-03-23T00:00:53;10.50;;;2.40;;
12120;SDS011;6124;59.460;17.908;2023-03-23T00:03:21;9.50;;;2.50;;
12120;SDS011;6124;59.460;17.908;2023-03-23T00:05:50;13.70;;;2.77;;
12120;SDS011;6124;59.460;17.908;2023-03-23T00:08:18;8.73;;;2.40;;
12120;SDS011;6124;59.460;17.908;2023-03-23T00:10:47;13.37;;;2.70;;
12120;SDS011;6124;59.460;17.908;2023-03-23T00:13:18;13.63;;;2.87;;
12120;SDS011;6124;59.460;17.908;2023-03-23T00:15:46;10.07;;;3.03;;
12120;SDS011;6124;59.460;17.908;2023-03-23T00:18:17;11.47;;;3.17;;
12120;SDS011;6124;59.460;17.908;2023-03-23T00:20:48;15.17;;;2.77;;
12120;SDS011;6124;59.460;17.908;2023-03-23T00:23:16;11.27;;;2.83;;
12120;SDS011;6124;59.460;17.908;2023-03-23T00:25:48;13.73;;;3.50;;
12120;SDS011;6124;59.460;17.908;2023-03-23T00:28:16;13.43;;;2.73;;
12120;SDS011;6124;59.460;17.908;2023-03-23T00:30:54;15.07;;;3.27;;
12120;SDS011;6124;59.460;17.908;2023-03-23T00:33:22;11.83;;;3.17;;
12120;SDS011;6124;59.460;17.908;2023-03-23T00:35:51;15.07;;;3.10;;
12120;SDS011;6124;59.460;17.908;2023-03-23T00:38:19;14.37;;;2.87;;
12120;SDS011;6124;59.460;17.908;2023-03-23T00:40:46;14.00;;;3.13;;
12120;SDS011;6124;59.460;17.908;2023-03-23T00:43:14;15.13;;;3.47;;
12120;SDS011;6124;59.460;17.908;2023-03-23T00:45:42;14.83;;;3.10;;
12120;SDS011;6124;59.460;17.908;2023-03-23T00:48:15;16.97;;;3.73;;
12120;SDS011;6124;59.460;17.908;2023-03-23T00:50:43;15.73;;;3.83;;
12120;SDS011;6124;59.460;17.908;2023-03-23T00:53:10;13.67;;;3.33;;
12120;SDS011;6124;59.460;17.908;2023-03-23T00:55:39;12.30;;;3.23;;
12120;SDS011;6124;59.460;17.908;2023-03-23T00:58:06;15.03;;;3.33;;
12120;SDS011;6124;59.460;17.908;2023-03-23T01:00:34;13.13;;;3.43;;
12120;SDS011;6124;59.460;17.908;2023-03-23T01:03:01;20.10;;;3.63;;
12120;SDS011;6124;59.460;17.908;2023-03-23T01:05:32;19.23;;;4.03;;
12120;SDS011;6124;59.460;17.908;2023-03-23T01:08:00;13.90;;;3.43;;
12120;SDS011;6124;59.460;17.908;2023-03-23T01:10:28;12.80;;;3.20;;
12120;SDS011;6124;59.460;17.908;2023-03-23T01:12:57;13.67;;;3.50;;
12120;SDS011;6124;59.460;17.908;2023-03-23T01:15:25;14.80;;;3.50;;
12120;SDS011;6124;59.460;17.908;2023-03-23T01:17:52;17.70;;;3.97;;
12120;SDS011;6124;59.460;17.908;2023-03-23T01:20:20;14.70;;;3.77;;
12120;SDS011;6124;59.460;17.908;2023-03-23T01:22:48;16.60;;;3.40;;
12120;SDS011;6124;59.460;17.908;2023-03-23T01:25:18;11.13;;;3.20;;
12120;SDS011;6124;59.460;17.908;2023-03-23T01:27:45;14.47;;;3.50;;
12120;SDS011;6124;59.460;17.908;2023-03-23T01:30:13;18.40;;;3.47;;
12120;SDS011;6124;59.460;17.908;2023-03-23T01:32:40;14.47;;;3.40;;
12120;SDS011;6124;59.460;17.908;2023-03-23T01:35:08;14.40;;;3.03;;
12120;SDS011;6124;59.460;17.908;2023-03-23T01:37:35;16.73;;;3.53;;
12120;SDS011;6124;59.460;17.908;2023-03-23T01:40:05;19.67;;;4.90;;
12120;SDS011;6124;59.460;17.908;2023-03-23T01:42:34;14.23;;;3.20;;
12120;SDS011;6124;59.460;17.908;2023-03-23T01:47:55;15.67;;;3.83;;
12120;SDS011;6124;59.460;17.908;2023-03-23T01:50:23;19.13;;;4.13;;
12120;SDS011;6124;59.460;17.908;2023-03-23T01:52:52;18.43;;;3.70;;
12120;SDS011;6124;59.460;17.908;2023-03-23T01:55:21;17.27;;;3.73;;
12120;SDS011;6124;59.460;17.908;2023-03-23T01:57:49;16.97;;;3.50;;
12120;SDS011;6124;59.460;17.908;2023-03-23T02:00:17;18.10;;;3.70;;
12120;SDS011;6124;59.460;17.908;2023-03-23T02:02:45;18.90;;;3.47;;
12120;SDS011;6124;59.460;17.908;2023-03-23T02:05:15;15.47;;;3.67;;
12120;SDS011;6124;59.460;17.908;2023-03-23T02:07:46;17.23;;;3.70;;
12120;SDS011;6124;59.460;17.908;2023-03-23T02:10:14;15.77;;;3.40;;
12120;SDS011;6124;59.460;17.908;2023-03-23T02:12:43;17.13;;;4.20;;
12120;SDS011;6124;59.460;17.908;2023-03-23T02:15:10;14.17;;;4.20;;
12120;SDS011;6124;59.460;17.908;2023-03-23T02:17:39;19.80;;;3.87;;
12120;SDS011;6124;59.460;17.908;2023-03-23T02:20:20;13.30;;;4.30;;
12120;SDS011;6124;59.460;17.908;2023-03-23T02:23:07;17.70;;;3.80;;
12120;SDS011;6124;59.460;17.908;2023-03-23T02:25:44;16.40;;;4.33;;
12120;SDS011;6124;59.460;17.908;2023-03-23T02:28:26;18.63;;;4.10;;
12120;SDS011;6124;59.460;17.908;2023-03-23T02:33:48;21.47;;;4.03;;
12120;SDS011;6124;59.460;17.908;2023-03-23T02:36:19;19.17;;;4.03;;
12120;SDS011;6124;59.460;17.908;2023-03-23T02:38:55;15.97;;;3.87;;
12120;SDS011;6124;59.460;17.908;2023-03-23T02:41:26;16.43;;;3.97;;
12120;SDS011;6124;59.460;17.908;2023-03-23T02:43:55;19.17;;;3.67;;
12120;SDS011;6124;59.460;17.908;2023-03-23T02:46:23;17.63;;;3.60;;
12120;SDS011;6124;59.460;17.908;2023-03-23T02:48:53;16.30;;;3.63;;
12120;SDS011;6124;59.460;17.908;2023-03-23T02:51:21;14.97;;;3.70;;
12120;SDS011;6124;59.460;17.908;2023-03-23T02:53:50;18.23;;;4.27;;
12120;SDS011;6124;59.460;17.908;2023-03-23T02:56:18;19.70;;;4.20;;
12120;SDS011;6124;59.460;17.908;2023-03-23T02:58:46;21.67;;;3.83;;
12120;SDS011;6124;59.460;17.908;2023-03-23T03:01:14;13.13;;;3.20;;
12120;SDS011;6124;59.460;17.908;2023-03-23T03:03:43;19.97;;;4.20;;
12120;SDS011;6124;59.460;17.908;2023-03-23T03:06:14;19.67;;;3.83;;
12120;SDS011;6124;59.460;17.908;2023-03-23T03:08:48;18.33;;;4.10;;
12120;SDS011;6124;59.460;17.908;2023-03-23T03:11:17;14.27;;;3.33;;
12120;SDS011;6124;59.460;17.908;2023-03-23T03:13:48;16.77;;;3.60;;
12120;SDS011;6124;59.460;17.908;2023-03-23T03:16:20;18.30;;;3.63;;
12120;SDS011;6124;59.460;17.908;2023-03-23T03:18:50;17.10;;;4.27;;
12120;SDS011;6124;59.460;17.908;2023-03-23T03:21:20;22.10;;;4.23;;
12120;SDS011;6124;59.460;17.908;2023-03-23T03:23:50;19.60;;;4.37;;
12120;SDS011;6124;59.460;17.908;2023-03-23T03:26:19;12.90;;;3.27;;
12120;SDS011;6124;59.460;17.908;2023-03-23T03:28:47;19.17;;;4.53;;
12120;SDS011;6124;59.460;17.908;2023-03-23T03:31:15;15.90;;;3.43;;
12120;SDS011;6124;59.460;17.908;2023-03-23T03:33:43;17.47;;;4.13;;
12120;SDS011;6124;59.460;17.908;2023-03-23T03:36:14;17.27;;;3.63;;
12120;SDS011;6124;59.460;17.908;2023-03-23T03:38:43;19.80;;;4.27;;
12120;SDS011;6124;59.460;17.908;2023-03-23T03:41:12;21.30;;;5.03;;
12120;SDS011;6124;59.460;17.908;2023-03-23T03:43:39;20.50;;;4.33;;
12120;SDS011;6124;59.460;17.908;2023-03-23T03:46:06;14.83;;;3.97;;
12120;SDS011;6124;59.460;17.908;2023-03-23T03:48:34;20.40;;;4.20;;
12120;SDS011;6124;59.460;17.908;2023-03-23T03:51:01;16.50;;;3.80;;
12120;SDS011;6124;59.460;17.908;2023-03-23T03:53:29;19.50;;;3.67;;
12120;SDS011;6124;59.460;17.908;2023-03-23T03:55:58;19.83;;;3.80;;
12120;SDS011;6124;59.460;17.908;2023-03-23T03:58:26;16.67;;;3.63;;
12120;SDS011;6124;59.460;17.908;2023-03-23T04:00:57;24.23;;;4.37;;
12120;SDS011;6124;59.460;17.908;2023-03-23T04:03:24;20.53;;;3.70;;
12120;SDS011;6124;59.460;17.908;2023-03-23T04:05:52;20.57;;;4.13;;
12120;SDS011;6124;59.460;17.908;2023-03-23T04:08:20;17.57;;;4.40;;
12120;SDS011;6124;59.460;17.908;2023-03-23T04:10:47;18.47;;;3.67;;
12120;SDS011;6124;59.460;17.908;2023-03-23T04:13:16;17.30;;;3.80;;
12120;SDS011;6124;59.460;17.908;2023-03-23T04:15:43;19.30;;;4.63;;
12120;SDS011;6124;59.460;17.908;2023-03-23T04:18:11;13.63;;;4.17;;
12120;SDS011;6124;59.460;17.908;2023-03-23T04:20:40;17.30;;;3.53;;
12120;SDS011;6124;59.460;17.908;2023-03-23T04:23:07;20.47;;;4.37;;
12120;SDS011;6124;59.460;17.908;2023-03-23T04:25:35;17.50;;;4.60;;
12120;SDS011;6124;59.460;17.908;2023-03-23T04:28:02;18.93;;;4.53;;
12120;SDS011;6124;59.460;17.908;2023-03-23T04:30:31;18.20;;;4.60;;
12120;SDS011;6124;59.460;17.908;2023-03-23T04:32:58;18.20;;;3.83;;
12120;SDS011;6124;59.460;17.908;2023-03-23T04:35:26;18.30;;;4.30;;
12120;SDS011;6124;59.460;17.908;2023-03-23T04:37:54;18.47;;;4.27;;
12120;SDS011;6124;59.460;17.908;2023-03-23T04:40:22;17.83;;;3.67;;
12120;SDS011;6124;59.460;17.908;2023-03-23T04:42:49;19.30;;;4.30;;
12120;SDS011;6124;59.460;17.908;2023-03-23T04:45:18;19.17;;;4.33;;
12120;SDS011;6124;59.460;17.908;2023-03-23T04:47:48;19.23;;;4.30;;
12120;SDS011;6124;59.460;17.908;2023-03-23T04:50:18;18.87;;;4.17;;
12120;SDS011;6124;59.460;17.908;2023-03-23T04:52:46;19.17;;;3.83;;
12120;SDS011;6124;59.460;17.908;2023-03-23T04:55:17;17.00;;;3.67;;
12120;SDS011;6124;59.460;17.908;2023-03-23T04:57:45;21.27;;;4.87;;
12120;SDS011;6124;59.460;17.908;2023-03-23T05:00:13;18.43;;;3.90;;
12120;SDS011;6124;59.460;17.908;2023-03-23T05:02:41;20.17;;;4.70;;
12120;SDS011;6124;59.460;17.908;2023-03-23T05:05:11;23.23;;;4.00;;
12120;SDS011;6124;59.460;17.908;2023-03-23T05:07:39;22.23;;;4.33;;
12120;SDS011;6124;59.460;17.908;2023-03-23T05:10:07;19.27;;;4.00;;
12120;SDS011;6124;59.460;17.908;2023-03-23T05:12:35;18.67;;;3.77;;
12120;SDS011;6124;59.460;17.908;2023-03-23T05:15:02;15.30;;;4.17;;
12120;SDS011;6124;59.460;17.908;2023-03-23T05:17:29;15.63;;;3.63;;
12120;SDS011;6124;59.460;17.908;2023-03-23T05:19:57;19.63;;;4.13;;
12120;SDS011;6124;59.460;17.908;2023-03-23T05:22:27;18.13;;;4.37;;
12120;SDS011;6124;59.460;17.908;2023-03-23T05:24:57;21.47;;;4.60;;
12120;SDS011;6124;59.460;17.908;2023-03-23T05:27:24;17.30;;;4.57;;
12120;SDS011;6124;59.460;17.908;2023-03-23T05:29:53;17.37;;;4.23;;
12120;SDS011;6124;59.460;17.908;2023-03-23T05:32:20;19.07;;;3.90;;
12120;SDS011;6124;59.460;17.908;2023-03-23T05:34:54;13.83;;;3.43;;
12120;SDS011;6124;59.460;17.908;2023-03-23T05:37:22;19.00;;;4.20;;
12120;SDS011;6124;59.460;17.908;2023-03-23T05:39:51;14.57;;;3.87;;
12120;SDS011;6124;59.460;17.908;2023-03-23T05:42:20;20.90;;;4.27;;
12120;SDS011;6124;59.460;17.908;2023-03-23T05:44:47;21.97;;;4.80;;
12120;SDS011;6124;59.460;17.908;2023-03-23T05:47:15;25.43;;;4.73;;
12120;SDS011;6124;59.460;17.908;2023-03-23T05:49:42;16.73;;;4.00;;
12120;SDS011;6124;59.460;17.908;2023-03-23T05:52:09;17.23;;;4.20;;
12120;SDS011;6124;59.460;17.908;2023-03-23T05:54:37;17.70;;;4.13;;
12120;SDS011;6124;59.460;17.908;2023-03-23T05:57:05;17.43;;;3.67;;
12120;SDS011;6124;59.460;17.908;2023-03-23T05:59:34;16.70;;;3.80;;
12120;SDS011;6124;59.460;17.908;2023-03-23T06:02:01;19.00;;;4.43;;
12120;SDS011;6124;59.460;17.908;2023-03-23T06:04:28;15.63;;;4.20;;
12120;SDS011;6124;59.460;17.908;2023-03-23T06:06:58;20.80;;;4.40;;
12120;SDS011;6124;59.460;17.908;2023-03-23T06:09:26;15.40;;;4.13;;
12120;SDS011;6124;59.460;17.908;2023-03-23T06:11:53;15.20;;;3.87;;
12120;SDS011;6124;59.460;17.908;2023-03-23T06:14:22;19.53;;;3.67;;
12120;SDS011;6124;59.460;17.908;2023-03-23T06:16:49;12.50;;;3.17;;
12120;SDS011;6124;59.460;17.908;2023-03-23T06:19:17;17.40;;;3.80;;
12120;SDS011;6124;59.460;17.908;2023-03-23T06:21:44;20.87;;;4.43;;
12120;SDS011;6124;59.460;17.908;2023-03-23T06:24:11;18.10;;;4.33;;
12120;SDS011;6124;59.460;17.908;2023-03-23T06:26:39;16.53;;;4.20;;
12120;SDS011;6124;59.460;17.908;2023-03-23T06:29:08;16.77;;;3.83;;
12120;SDS011;6124;59.460;17.908;2023-03-23T06:31:38;14.47;;;3.90;;
12120;SDS011;6124;59.460;17.908;2023-03-23T06:34:06;15.83;;;3.83;;
12120;SDS011;6124;59.460;17.908;2023-03-23T06:36:34;23.73;;;4.63;;
12120;SDS011;6124;59.460;17.908;2023-03-23T06:39:03;14.30;;;3.43;;
12120;SDS011;6124;59.460;17.908;2023-03-23T06:41:30;20.03;;;3.83;;
12120;SDS011;6124;59.460;17.908;2023-03-23T06:43:58;22.23;;;4.00;;
12120;SDS011;6124;59.460;17.908;2023-03-23T06:46:26;24.40;;;4.30;;
12120;SDS011;6124;59.460;17.908;2023-03-23T06:48:55;16.07;;;3.57;;
12120;SDS011;6124;59.460;17.908;2023-03-23T06:51:22;19.97;;;4.13;;
12120;SDS011;6124;59.460;17.908;2023-03-23T06:53:49;13.37;;;4.17;;
12120;SDS011;6124;59.460;17.908;2023-03-23T06:56:16;14.83;;;3.80;;
12120;SDS011;6124;59.460;17.908;2023-03-23T06:58:44;21.63;;;3.90;;
12120;SDS011;6124;59.460;17.908;2023-03-23T07:01:12;16.63;;;3.50;;
12120;SDS011;6124;59.460;17.908;2023-03-23T07:03:40;14.53;;;3.80;;
12120;SDS011;6124;59.460;17.908;2023-03-23T07:06:09;14.07;;;3.97;;
12120;SDS011;6124;59.460;17.908;2023-03-23T07:08:36;16.37;;;3.40;;
12120;SDS011;6124;59.460;17.908;2023-03-23T07:11:04;10.40;;;4.07;;
12120;SDS011;6124;59.460;17.908;2023-03-23T07:13:31;14.27;;;3.60;;
12120;SDS011;6124;59.460;17.908;2023-03-23T07:15:59;15.47;;;4.50;;
12120;SDS011;6124;59.460;17.908;2023-03-23T07:18:26;14.87;;;3.77;;
12120;SDS011;6124;59.460;17.908;2023-03-23T07:20:53;14.23;;;4.03;;
12120;SDS011;6124;59.460;17.908;2023-03-23T07:23:22;13.73;;;3.80;;
12120;SDS011;6124;59.460;17.908;2023-03-23T07:25:49;15.83;;;3.50;;
12120;SDS011;6124;59.460;17.908;2023-03-23T07:28:17;12.47;;;3.83;;
12120;SDS011;6124;59.460;17.908;2023-03-23T07:30:44;13.30;;;3.63;;
12120;SDS011;6124;59.460;17.908;2023-03-23T07:33:12;14.37;;;4.00;;
12120;SDS011;6124;59.460;17.908;2023-03-23T07:35:39;13.30;;;4.13;;
12120;SDS011;6124;59.460;17.908;2023-03-23T07:38:06;14.00;;;3.70;;
12120;SDS011;6124;59.460;17.908;2023-03-23T07:40:35;13.27;;;3.73;;
12120;SDS011;6124;59.460;17.908;2023-03-23T07:43:03;11.63;;;3.73;;
12120;SDS011;6124;59.460;17.908;2023-03-23T07:45:30;12.33;;;3.40;;
12120;SDS011;6124;59.460;17.908;2023-03-23T07:47:58;14.60;;;3.40;;
12120;SDS011;6124;59.460;17.908;2023-03-23T07:50:26;12.53;;;3.60;;
12120;SDS011;6124;59.460;17.908;2023-03-23T07:52:54;13.73;;;3.87;;
12120;SDS011;6124;59.460;17.908;2023-03-23T07:55:23;19.10;;;4.27;;
12120;SDS011;6124;59.460;17.908;2023-03-23T07:57:53;14.37;;;4.10;;
12120;SDS011;6124;59.460;17.908;2023-03-23T08:00:21;9.20;;;3.17;;
12120;SDS011;6124;59.460;17.908;2023-03-23T08:02:50;13.33;;;3.57;;
12120;SDS011;6124;59.460;17.908;2023-03-23T08:05:18;14.27;;;3.47;;
12120;SDS011;6124;59.460;17.908;2023-03-23T08:07:45;16.77;;;3.63;;
12120;SDS011;6124;59.460;17.908;2023-03-23T08:10:13;11.03;;;3.47;;
12120;SDS011;6124;59.460;17.908;2023-03-23T08:12:42;14.33;;;3.70;;
12120;SDS011;6124;59.460;17.908;2023-03-23T08:15:11;14.40;;;3.47;;
12120;SDS011;6124;59.460;17.908;2023-03-23T08:17:39;13.63;;;3.67;;
12120;SDS011;6124;59.460;17.908;2023-03-23T08:20:07;15.13;;;3.73;;
12120;SDS011;6124;59.460;17.908;2023-03-23T08:22:37;13.00;;;3.43;;
12120;SDS011;6124;59.460;17.908;2023-03-23T08:25:06;13.73;;;3.47;;
12120;SDS011;6124;59.460;17.908;2023-03-23T08:27:33;11.40;;;3.80;;
12120;SDS011;6124;59.460;17.908;2023-03-23T08:30:01;13.07;;;3.23;;
12120;SDS011;6124;59.460;17.908;2023-03-23T08:32:31;15.87;;;3.63;;
12120;SDS011;6124;59.460;17.908;2023-03-23T08:34:59;12.77;;;3.17;;
12120;SDS011;6124;59.460;17.908;2023-03-23T08:37:26;13.47;;;3.60;;
12120;SDS011;6124;59.460;17.908;2023-03-23T08:39:54;14.30;;;3.43;;
12120;SDS011;6124;59.460;17.908;2023-03-23T08:42:23;11.57;;;3.00;;
12120;SDS011;6124;59.460;17.908;2023-03-23T08:44:51;11.60;;;3.27;;
12120;SDS011;6124;59.460;17.908;2023-03-23T08:47:18;9.97;;;3.20;;
12120;SDS011;6124;59.460;17.908;2023-03-23T08:49:47;12.47;;;3.40;;
12120;SDS011;6124;59.460;17.908;2023-03-23T08:52:17;11.23;;;3.43;;
12120;SDS011;6124;59.460;17.908;2023-03-23T08:54:46;12.93;;;3.50;;
12120;SDS011;6124;59.460;17.908;2023-03-23T08:57:13;12.43;;;3.50;;
12120;SDS011;6124;59.460;17.908;2023-03-23T08:59:41;14.50;;;3.60;;
12120;SDS011;6124;59.460;17.908;2023-03-23T09:02:09;14.40;;;3.73;;
12120;SDS011;6124;59.460;17.908;2023-03-23T09:04:38;12.40;;;3.73;;
12120;SDS011;6124;59.460;17.908;2023-03-23T09:07:09;12.73;;;3.20;;
12120;SDS011;6124;59.460;17.908;2023-03-23T09:09:37;16.80;;;3.97;;
12120;SDS011;6124;59.460;17.908;2023-03-23T09:12:05;13.57;;;3.50;;
12120;SDS011;6124;59.460;17.908;2023-03-23T09:14:33;10.47;;;3.13;;
12120;SDS011;6124;59.460;17.908;2023-03-23T09:17:02;11.07;;;3.20;;
12120;SDS011;6124;59.460;17.908;2023-03-23T09:19:29;11.27;;;3.63;;
12120;SDS011;6124;59.460;17.908;2023-03-23T09:21:58;13.23;;;3.50;;
12120;SDS011;6124;59.460;17.908;2023-03-23T09:24:26;14.90;;;3.53;;
12120;SDS011;6124;59.460;17.908;2023-03-23T09:26:54;11.07;;;3.47;;
12120;SDS011;6124;59.460;17.908;2023-03-23T09:29:23;14.13;;;3.43;;
12120;SDS011;6124;59.460;17.908;2023-03-23T09:31:51;11.13;;;3.40;;
12120;SDS011;6124;59.460;17.908;2023-03-23T09:34:19;12.83;;;3.37;;
12120;SDS011;6124;59.460;17.908;2023-03-23T09:36:47;10.97;;;3.27;;
12120;SDS011;6124;59.460;17.908;2023-03-23T09:39:14;12.47;;;3.60;;
12120;SDS011;6124;59.460;17.908;2023-03-23T09:41:51;11.70;;;3.43;;
12120;SDS011;6124;59.460;17.908;2023-03-23T09:44:22;10.50;;;3.03;;
12120;SDS011;6124;59.460;17.908;2023-03-23T09:46:54;10.60;;;3.37;;
12120;SDS011;6124;59.460;17.908;2023-03-23T09:49:23;13.90;;;3.77;;
12120;SDS011;6124;59.460;17.908;2023-03-23T09:51:53;14.37;;;3.10;;
12120;SDS011;6124;59.460;17.908;2023-03-23T09:54:23;12.40;;;3.30;;
12120;SDS011;6124;59.460;17.908;2023-03-23T09:56:53;12.37;;;3.03;;
12120;SDS011;6124;59.460;17.908;2023-03-23T09:59:23;11.43;;;3.60;;
12120;SDS011;6124;59.460;17.908;2023-03-23T10:01:52;11.30;;;2.80;;
12120;SDS011;6124;59.460;17.908;2023-03-23T10:04:24;11.73;;;3.00;;
12120;SDS011;6124;59.460;17.908;2023-03-23T10:06:52;13.27;;;3.73;;
12120;SDS011;6124;59.460;17.908;2023-03-23T10:09:20;10.67;;;3.20;;
12120;SDS011;6124;59.460;17.908;2023-03-23T10:11:51;11.47;;;3.30;;
12120;SDS011;6124;59.460;17.908;2023-03-23T10:14:28;17.33;;;4.03;;
12120;SDS011;6124;59.460;17.908;2023-03-23T10:17:00;8.27;;;3.30;;
12120;SDS011;6124;59.460;17.908;2023-03-23T10:19:29;12.47;;;3.73;;
12120;SDS011;6124;59.460;17.908;2023-03-23T10:22:02;10.37;;;3.27;;
12120;SDS011;6124;59.460;17.908;2023-03-23T10:24:33;11.37;;;3.27;;
12120;SDS011;6124;59.460;17.908;2023-03-23T10:27:04;10.37;;;3.10;;
12120;SDS011;6124;59.460;17.908;2023-03-23T10:29:35;12.00;;;2.73;;
12120;SDS011;6124;59.460;17.908;2023-03-23T10:32:04;11.80;;;3.33;;
12120;SDS011;6124;59.460;17.908;2023-03-23T10:34:39;13.00;;;3.10;;
12120;SDS011;6124;59.460;17.908;2023-03-23T10:37:10;12.57;;;3.70;;
12120;SDS011;6124;59.460;17.908;2023-03-23T10:39:41;9.87;;;3.40;;
12120;SDS011;6124;59.460;17.908;2023-03-23T10:42:10;9.37;;;3.33;;
12120;SDS011;6124;59.460;17.908;2023-03-23T10:44:40;14.40;;;3.47;;
12120;SDS011;6124;59.460;17.908;2023-03-23T10:47:07;11.00;;;3.73;;
12120;SDS011;6124;59.460;17.908;2023-03-23T10:49:37;15.67;;;3.60;;
12120;SDS011;6124;59.460;17.908;2023-03-23T10:52:09;11.80;;;3.23;;
12120;SDS011;6124;59.460;17.908;2023-03-23T10:54:38;12.37;;;3.03;;
12120;SDS011;6124;59.460;17.908;2023-03-23T10:57:20;10.47;;;3.00;;
12120;SDS011;6124;59.460;17.908;2023-03-23T10:59:49;11.37;;;3.00;;
12120;SDS011;6124;59.460;17.908;2023-03-23T11:02:17;14.53;;;3.63;;
12120;SDS011;6124;59.460;17.908;2023-03-23T11:04:46;10.93;;;3.23;;
12120;SDS011;6124;59.460;17.908;2023-03-23T11:07:17;10.70;;;3.03;;
12120;SDS011;6124;59.460;17.908;2023-03-23T11:09:51;16.40;;;4.17;;
12120;SDS011;6124;59.460;17.908;2023-03-23T11:12:19;11.57;;;3.13;;
12120;SDS011;6124;59.460;17.908;2023-03-23T11:14:48;12.80;;;3.60;;
12120;SDS011;6124;59.460;17.908;2023-03-23T11:17:26;11.70;;;3.67;;
12120;SDS011;6124;59.460;17.908;2023-03-23T11:19:53;13.33;;;3.50;;
12120;SDS011;6124;59.460;17.908;2023-03-23T11:22:23;14.23;;;3.90;;
12120;SDS011;6124;59.460;17.908;2023-03-23T11:24:52;9.60;;;2.83;;
12120;SDS011;6124;59.460;17.908;2023-03-23T11:27:20;11.30;;;3.20;;
12120;SDS011;6124;59.460;17.908;2023-03-23T11:29:49;11.23;;;3.07;;
12120;SDS011;6124;59.460;17.908;2023-03-23T11:32:17;11.83;;;3.10;;
12120;SDS011;6124;59.460;17.908;2023-03-23T11:34:47;13.30;;;3.40;;
12120;SDS011;6124;59.460;17.908;2023-03-23T11:37:16;14.63;;;2.93;;
12120;SDS011;6124;59.460;17.908;2023-03-23T11:39:46;13.53;;;3.50;;
12120;SDS011;6124;59.460;17.908;2023-03-23T11:42:17;11.73;;;3.03;;
12120;SDS011;6124;59.460;17.908;2023-03-23T11:44:45;10.40;;;3.13;;
12120;SDS011;6124;59.460;17.908;2023-03-23T11:47:16;9.47;;;2.93;;
12120;SDS011;6124;59.460;17.908;2023-03-23T11:49:47;7.70;;;2.93;;
12120;SDS011;6124;59.460;17.908;2023-03-23T11:52:19;12.03;;;3.40;;
12120;SDS011;6124;59.460;17.908;2023-03-23T11:54:49;11.60;;;3.50;;
12120;SDS011;6124;59.460;17.908;2023-03-23T11:57:17;11.53;;;2.83;;
12120;SDS011;6124;59.460;17.908;2023-03-23T11:59:45;10.57;;;3.03;;
12120;SDS011;6124;59.460;17.908;2023-03-23T12:05:02;8.67;;;3.10;;
12120;SDS011;6124;59.460;17.908;2023-03-23T12:07:40;12.23;;;3.23;;
12120;SDS011;6124;59.460;17.908;2023-03-23T12:10:17;8.53;;;2.70;;
12120;SDS011;6124;59.460;17.908;2023-03-23T12:12:48;9.07;;;2.63;;
12120;SDS011;6124;59.460;17.908;2023-03-23T12:15:20;9.87;;;2.93;;
12120;SDS011;6124;59.460;17.908;2023-03-23T12:17:51;10.00;;;3.13;;
12120;SDS011;6124;59.460;17.908;2023-03-23T12:20:27;13.27;;;2.70;;
12120;SDS011;6124;59.460;17.908;2023-03-23T12:23:00;8.93;;;2.67;;
12120;SDS011;6124;59.460;17.908;2023-03-23T12:28:18;12.80;;;3.33;;
12120;SDS011;6124;59.460;17.908;2023-03-23T12:30:50;10.43;;;2.70;;
12120;SDS011;6124;59.460;17.908;2023-03-23T12:33:21;8.43;;;3.17;;
12120;SDS011;6124;59.460;17.908;2023-03-23T12:35:57;12.60;;;3.60;;
12120;SDS011;6124;59.460;17.908;2023-03-23T12:38:32;10.67;;;3.23;;
12120;SDS011;6124;59.460;17.908;2023-03-23T12:41:11;10.03;;;2.60;;
12120;SDS011;6124;59.460;17.908;2023-03-23T12:43:42;11.90;;;3.17;;
12120;SDS011;6124;59.460;17.908;2023-03-23T12:46:19;8.77;;;2.67;;
12120;SDS011;6124;59.460;17.908;2023-03-23T12:48:48;10.50;;;3.30;;
12120;SDS011;6124;59.460;17.908;2023-03-23T12:51:21;12.77;;;3.33;;
12120;SDS011;6124;59.460;17.908;2023-03-23T12:53:51;11.77;;;3.30;;
12120;SDS011;6124;59.460;17.908;2023-03-23T12:56:22;11.10;;;3.43;;
12120;SDS011;6124;59.460;17.908;2023-03-23T12:58:51;11.37;;;3.20;;
12120;SDS011;6124;59.460;17.908;2023-03-23T13:01:21;11.50;;;3.00;;
12120;SDS011;6124;59.460;17.908;2023-03-23T13:03:52;16.60;;;3.87;;
12120;SDS011;6124;59.460;17.908;2023-03-23T13:06:23;10.70;;;2.80;;
12120;SDS011;6124;59.460;17.908;2023-03-23T13:08:56;9.47;;;3.40;;
12120;SDS011;6124;59.460;17.908;2023-03-23T13:11:28;11.83;;;3.00;;
12120;SDS011;6124;59.460;17.908;2023-03-23T13:13:58;9.53;;;3.13;;
12120;SDS011;6124;59.460;17.908;2023-03-23T13:16:29;7.50;;;2.53;;
12120;SDS011;6124;59.460;17.908;2023-03-23T13:19:01;9.67;;;2.77;;
12120;SDS011;6124;59.460;17.908;2023-03-23T13:21:32;9.83;;;3.10;;
12120;SDS011;6124;59.460;17.908;2023-03-23T13:24:00;8.00;;;3.00;;
12120;SDS011;6124;59.460;17.908;2023-03-23T13:26:29;8.27;;;2.83;;
12120;SDS011;6124;59.460;17.908;2023-03-23T13:28:57;9.90;;;3.00;;
12120;SDS011;6124;59.460;17.908;2023-03-23T13:31:27;11.57;;;3.53;;
12120;SDS011;6124;59.460;17.908;2023-03-23T13:33:59;10.03;;;2.90;;
12120;SDS011;6124;59.460;17.908;2023-03-23T13:36:29;9.57;;;2.70;;
12120;SDS011;6124;59.460;17.908;2023-03-23T13:38:59;7.47;;;2.57;;
12120;SDS011;6124;59.460;17.908;2023-03-23T13:41:26;10.67;;;2.83;;
12120;SDS011;6124;59.460;17.908;2023-03-23T13:44:04;8.83;;;2.77;;
12120;SDS011;6124;59.460;17.908;2023-03-23T13:46:32;8.77;;;2.63;;
12120;SDS011;6124;59.460;17.908;2023-03-23T13:54:42;7.53;;;2.43;;
12120;SDS011;6124;59.460;17.908;2023-03-23T13:57:19;8.93;;;3.10;;
12120;SDS011;6124;59.460;17.908;2023-03-23T13:59:48;11.43;;;3.63;;
12120;SDS011;6124;59.460;17.908;2023-03-23T14:02:26;10.83;;;2.93;;
12120;SDS011;6124;59.460;17.908;2023-03-23T14:04:54;8.23;;;2.80;;
12120;SDS011;6124;59.460;17.908;2023-03-23T14:07:22;9.87;;;2.77;;
12120;SDS011;6124;59.460;17.908;2023-03-23T14:09:51;13.00;;;3.13;;
12120;SDS011;6124;59.460;17.908;2023-03-23T14:12:19;9.73;;;2.90;;
12120;SDS011;6124;59.460;17.908;2023-03-23T14:14:48;8.20;;;2.43;;
12120;SDS011;6124;59.460;17.908;2023-03-23T14:17:17;15.40;;;3.37;;
12120;SDS011;6124;59.460;17.908;2023-03-23T14:19:46;10.93;;;2.83;;
12120;SDS011;6124;59.460;17.908;2023-03-23T14:22:17;7.77;;;2.70;;
12120;SDS011;6124;59.460;17.908;2023-03-23T14:24:45;11.37;;;3.23;;
12120;SDS011;6124;59.460;17.908;2023-03-23T14:27:14;13.20;;;2.83;;
12120;SDS011;6124;59.460;17.908;2023-03-23T14:29:41;8.13;;;2.97;;
12120;SDS011;6124;59.460;17.908;2023-03-23T14:32:10;8.57;;;2.70;;
12120;SDS011;6124;59.460;17.908;2023-03-23T14:34:39;10.70;;;2.80;;
12120;SDS011;6124;59.460;17.908;2023-03-23T14:37:08;10.60;;;2.87;;
12120;SDS011;6124;59.460;17.908;2023-03-23T14:39:36;11.50;;;2.83;;
12120;SDS011;6124;59.460;17.908;2023-03-23T14:42:04;10.13;;;2.73;;
12120;SDS011;6124;59.460;17.908;2023-03-23T14:44:37;9.10;;;2.83;;
12120;SDS011;6124;59.460;17.908;2023-03-23T14:47:06;8.17;;;2.90;;
12120;SDS011;6124;59.460;17.908;2023-03-23T14:49:36;8.70;;;2.90;;
12120;SDS011;6124;59.460;17.908;2023-03-23T14:52:07;9.57;;;3.00;;
12120;SDS011;6124;59.460;17.908;2023-03-23T14:54:36;7.53;;;2.90;;
12120;SDS011;6124;59.460;17.908;2023-03-23T14:57:10;8.53;;;3.10;;
12120;SDS011;6124;59.460;17.908;2023-03-23T14:59:40;6.83;;;2.67;;
12120;SDS011;6124;59.460;17.908;2023-03-23T15:02:10;8.90;;;2.60;;
12120;SDS011;6124;59.460;17.908;2023-03-23T15:04:38;12.80;;;3.33;;